sensor_id;sensor_type;location;lat;lon;timestamp;pressure;altitude;pressure_sealevel;temperature;humidity
66021;BME280;52789;59.980;30.346;2023-01-29T00:04:21;100822.28;;;-2.79;99.98
66021;BME280;52789;59.980;30.346;2023-01-29T00:06:47;100803.72;;;-2.73;100.00
66021;BME280;52789;59.980;30.346;2023-01-29T00:09:13;100783.66;;;-2.89;99.99
66021;BME280;52789;59.980;30.346;2023-01-29T00:11:38;100804.72;;;-2.76;99.44
66021;BME280;52789;59.980;30.346;2023-01-29T00:14:05;100774.91;;;-2.88;100.00
66021;BME280;52789;59.980;30.346;2023-01-29T00:16:31;100778.19;;;-2.84;99.83
66021;BME280;52789;59.980;30.346;2023-01-29T00:18:56;100793.88;;;-2.68;100.00
66021;BME280;52789;59.980;30.346;2023-01-29T00:21:22;100789.44;;;-2.66;99.48
66021;BME280;52789;59.980;30.346;2023-01-29T00:23:48;100786.47;;;-2.59;99.80
66021;BME280;52789;59.980;30.346;2023-01-29T00:26:15;100778.41;;;-2.71;99.51
66021;BME280;52789;59.980;30.346;2023-01-29T00:28:41;100776.16;;;-2.62;99.70
66021;BME280;52789;59.980;30.346;2023-01-29T00:31:07;100781.84;;;-2.54;99.51
66021;BME280;52789;59.980;30.346;2023-01-29T00:33:33;100762.00;;;-2.56;99.92
66021;BME280;52789;59.980;30.346;2023-01-29T00:36:07;100746.56;;;-2.61;99.46
66021;BME280;52789;59.980;30.346;2023-01-29T00:38:34;100769.16;;;-2.44;99.27
66021;BME280;52789;59.980;30.346;2023-01-29T00:41:07;100776.16;;;-2.44;99.56
66021;BME280;52789;59.980;30.346;2023-01-29T00:43:51;100712.47;;;-2.73;98.92
66021;BME280;52789;59.980;30.346;2023-01-29T00:46:35;100760.44;;;-2.43;98.97
66021;BME280;52789;59.980;30.346;2023-01-29T00:49:01;100755.22;;;-2.43;99.79
66021;BME280;52789;59.980;30.346;2023-01-29T00:51:27;100745.78;;;-2.45;100.00
66021;BME280;52789;59.980;30.346;2023-01-29T00:53:53;100735.50;;;-2.48;99.91
66021;BME280;52789;59.980;30.346;2023-01-29T00:56:25;100744.44;;;-2.37;99.57
66021;BME280;52789;59.980;30.346;2023-01-29T00:58:51;100747.81;;;-2.35;99.40
66021;BME280;52789;59.980;30.346;2023-01-29T01:01:17;100754.41;;;-2.28;99.08
66021;BME280;52789;59.980;30.346;2023-01-29T01:04:03;100740.44;;;-2.27;99.20
66021;BME280;52789;59.980;30.346;2023-01-29T01:06:28;100740.78;;;-2.17;98.89
66021;BME280;52789;59.980;30.346;2023-01-29T01:08:54;100734.91;;;-2.21;98.82
66021;BME280;52789;59.980;30.346;2023-01-29T01:11:38;100709.31;;;-2.30;99.11
66021;BME280;52789;59.980;30.346;2023-01-29T01:14:06;100680.84;;;-2.50;99.14
66021;BME280;52789;59.980;30.346;2023-01-29T01:16:32;100732.47;;;-2.08;98.91
66021;BME280;52789;59.980;30.346;2023-01-29T01:18:57;100739.53;;;-2.10;99.21
66021;BME280;52789;59.980;30.346;2023-01-29T01:21:23;100719.25;;;-2.21;99.20
66021;BME280;52789;59.980;30.346;2023-01-29T01:23:48;100737.69;;;-2.08;98.86
66021;BME280;52789;59.980;30.346;2023-01-29T01:26:19;100731.63;;;-2.08;98.56
66021;BME280;52789;59.980;30.346;2023-01-29T01:28:44;100724.72;;;-2.09;98.75
66021;BME280;52789;59.980;30.346;2023-01-29T01:31:12;100723.63;;;-2.05;98.80
66021;BME280;52789;59.980;30.346;2023-01-29T01:33:39;100722.78;;;-2.06;98.84
66021;BME280;52789;59.980;30.346;2023-01-29T01:36:05;100703.41;;;-2.17;98.63
66021;BME280;52789;59.980;30.346;2023-01-29T01:38:36;100719.41;;;-2.08;98.49
66021;BME280;52789;59.980;30.346;2023-01-29T01:41:14;100718.75;;;-2.11;98.53
66021;BME280;52789;59.980;30.346;2023-01-29T01:43:57;100715.19;;;-2.10;99.16
66021;BME280;52789;59.980;30.346;2023-01-29T01:46:30;100701.75;;;-2.19;99.54
66021;BME280;52789;59.980;30.346;2023-01-29T01:49:20;100705.94;;;-2.16;100.00
66021;BME280;52789;59.980;30.346;2023-01-29T01:51:49;100699.53;;;-2.10;99.83
66021;BME280;52789;59.980;30.346;2023-01-29T01:54:27;100710.25;;;-2.15;100.00
66021;BME280;52789;59.980;30.346;2023-01-29T01:56:59;100718.75;;;-2.11;100.00
66021;BME280;52789;59.980;30.346;2023-01-29T01:59:35;100714.69;;;-2.17;100.00
66021;BME280;52789;59.980;30.346;2023-01-29T02:02:02;100695.25;;;-2.27;100.00
66021;BME280;52789;59.980;30.346;2023-01-29T02:04:49;100708.97;;;-2.24;100.00
66021;BME280;52789;59.980;30.346;2023-01-29T02:07:38;100704.00;;;-2.28;100.00
66021;BME280;52789;59.980;30.346;2023-01-29T02:10:23;100703.50;;;-2.19;100.00
66021;BME280;52789;59.980;30.346;2023-01-29T02:12:50;100707.13;;;-2.22;100.00
66021;BME280;52789;59.980;30.346;2023-01-29T02:15:16;100695.44;;;-2.30;100.00
66021;BME280;52789;59.980;30.346;2023-01-29T02:17:42;100699.22;;;-2.20;100.00
66021;BME280;52789;59.980;30.346;2023-01-29T02:20:29;100677.84;;;-2.27;100.00
66021;BME280;52789;59.980;30.346;2023-01-29T02:39:52;100677.81;;;-2.42;100.00
66021;BME280;52789;59.980;30.346;2023-01-29T02:47:18;100663.44;;;-2.34;100.00
66021;BME280;52789;59.980;30.346;2023-01-29T02:52:35;100656.97;;;-2.27;100.00
66021;BME280;52789;59.980;30.346;2023-01-29T02:55:11;100661.53;;;-2.30;100.00
66021;BME280;52789;59.980;30.346;2023-01-29T02:57:42;100634.91;;;-2.37;100.00
66021;BME280;52789;59.980;30.346;2023-01-29T03:00:19;100625.94;;;-2.31;100.00
66021;BME280;52789;59.980;30.346;2023-01-29T03:03:01;100632.56;;;-2.26;100.00
66021;BME280;52789;59.980;30.346;2023-01-29T03:05:36;100615.41;;;-2.30;100.00
66021;BME280;52789;59.980;30.346;2023-01-29T03:08:10;100605.81;;;-2.29;100.00
66021;BME280;52789;59.980;30.346;2023-01-29T03:10:44;100628.00;;;-2.06;100.00
66021;BME280;52789;59.980;30.346;2023-01-29T03:13:16;100606.53;;;-2.11;100.00
66021;BME280;52789;59.980;30.346;2023-01-29T03:15:50;100591.81;;;-2.12;100.00
66021;BME280;52789;59.980;30.346;2023-01-29T03:18:28;100613.53;;;-1.96;100.00
66021;BME280;52789;59.980;30.346;2023-01-29T03:21:06;100607.13;;;-1.91;100.00
66021;BME280;52789;59.980;30.346;2023-01-29T03:23:55;100590.97;;;-1.97;100.00
66021;BME280;52789;59.980;30.346;2023-01-29T03:26:42;100579.59;;;-1.96;100.00
66021;BME280;52789;59.980;30.346;2023-01-29T03:29:27;100595.84;;;-1.91;100.00
66021;BME280;52789;59.980;30.346;2023-01-29T03:32:13;100579.59;;;-1.96;100.00
66021;BME280;52789;59.980;30.346;2023-01-29T03:34:48;100583.63;;;-1.91;100.00
66021;BME280;52789;59.980;30.346;2023-01-29T03:37:35;100585.03;;;-1.85;100.00
66021;BME280;52789;59.980;30.346;2023-01-29T03:40:04;100576.06;;;-1.95;100.00
66021;BME280;52789;59.980;30.346;2023-01-29T03:42:47;100559.47;;;-1.94;100.00
66021;BME280;52789;59.980;30.346;2023-01-29T03:45:37;100572.66;;;-1.81;100.00
66021;BME280;52789;59.980;30.346;2023-01-29T03:53:48;100541.31;;;-1.81;100.00
66021;BME280;52789;59.980;30.346;2023-01-29T03:56:35;100518.56;;;-1.94;100.00
66021;BME280;52789;59.980;30.346;2023-01-29T03:59:25;100538.44;;;-1.77;100.00
66021;BME280;52789;59.980;30.346;2023-01-29T04:01:57;100513.44;;;-1.81;100.00
66021;BME280;52789;59.980;30.346;2023-01-29T04:04:33;100520.16;;;-1.77;100.00
66021;BME280;52789;59.980;30.346;2023-01-29T04:07:09;100526.06;;;-1.73;100.00
66021;BME280;52789;59.980;30.346;2023-01-29T04:12:11;100521.97;;;-1.63;100.00
66021;BME280;52789;59.980;30.346;2023-01-29T04:14:38;100529.53;;;-1.59;100.00
66021;BME280;52789;59.980;30.346;2023-01-29T04:17:36;100531.13;;;-1.56;100.00
66021;BME280;52789;59.980;30.346;2023-01-29T04:20:05;100528.50;;;-1.56;100.00
66021;BME280;52789;59.980;30.346;2023-01-29T04:22:35;100533.53;;;-1.53;100.00
66021;BME280;52789;59.980;30.346;2023-01-29T04:25:08;100521.88;;;-1.62;100.00
66021;BME280;52789;59.980;30.346;2023-01-29T04:36:05;100498.56;;;-1.65;100.00
66021;BME280;52789;59.980;30.346;2023-01-29T04:39:09;100507.53;;;-1.54;100.00
66021;BME280;52789;59.980;30.346;2023-01-29T04:41:54;100494.94;;;-1.62;100.00
66021;BME280;52789;59.980;30.346;2023-01-29T04:47:26;100496.88;;;-1.51;100.00
66021;BME280;52789;59.980;30.346;2023-01-29T04:50:10;100494.69;;;-1.43;100.00
66021;BME280;52789;59.980;30.346;2023-01-29T04:58:34;100490.84;;;-1.38;100.00
66021;BME280;52789;59.980;30.346;2023-01-29T05:00:53;100489.81;;;-1.35;100.00
66021;BME280;52789;59.980;30.346;2023-01-29T05:03:22;100476.00;;;-1.37;100.00
66021;BME280;52789;59.980;30.346;2023-01-29T05:05:49;100490.75;;;-1.36;100.00
66021;BME280;52789;59.980;30.346;2023-01-29T05:08:18;100506.16;;;-1.32;100.00
66021;BME280;52789;59.980;30.346;2023-01-29T05:10:47;100494.47;;;-1.26;100.00
66021;BME280;52789;59.980;30.346;2023-01-29T05:13:14;100499.97;;;-1.16;100.00
66021;BME280;52789;59.980;30.346;2023-01-29T05:18:46;100470.22;;;-1.28;100.00
66021;BME280;52789;59.980;30.346;2023-01-29T05:21:11;100496.34;;;-1.14;100.00
66021;BME280;52789;59.980;30.346;2023-01-29T05:23:37;100498.28;;;-1.03;100.00
66021;BME280;52789;59.980;30.346;2023-01-29T05:26:03;100501.34;;;-0.97;100.00
66021;BME280;52789;59.980;30.346;2023-01-29T05:28:29;100498.53;;;-0.94;100.00
66021;BME280;52789;59.980;30.346;2023-01-29T05:30:55;100500.13;;;-0.91;100.00
66021;BME280;52789;59.980;30.346;2023-01-29T05:33:26;100476.53;;;-1.04;100.00
66021;BME280;52789;59.980;30.346;2023-01-29T05:35:53;100493.13;;;-0.90;100.00
66021;BME280;52789;59.980;30.346;2023-01-29T05:38:20;100493.69;;;-0.85;100.00
66021;BME280;52789;59.980;30.346;2023-01-29T05:40:46;100484.91;;;-0.84;100.00
66021;BME280;52789;59.980;30.346;2023-01-29T05:43:15;100453.66;;;-1.00;100.00
66021;BME280;52789;59.980;30.346;2023-01-29T05:45:41;100466.44;;;-0.96;100.00
66021;BME280;52789;59.980;30.346;2023-01-29T05:48:06;100488.06;;;-0.79;100.00
66021;BME280;52789;59.980;30.346;2023-01-29T05:50:32;100486.31;;;-0.79;100.00
66021;BME280;52789;59.980;30.346;2023-01-29T05:52:59;100502.53;;;-0.74;100.00
66021;BME280;52789;59.980;30.346;2023-01-29T05:55:25;100483.19;;;-0.71;100.00
66021;BME280;52789;59.980;30.346;2023-01-29T05:57:54;100483.00;;;-0.68;100.00
66021;BME280;52789;59.980;30.346;2023-01-29T06:00:20;100482.91;;;-0.67;100.00
66021;BME280;52789;59.980;30.346;2023-01-29T06:02:45;100474.50;;;-0.72;100.00
66021;BME280;52789;59.980;30.346;2023-01-29T06:05:11;100469.78;;;-0.79;100.00
66021;BME280;52789;59.980;30.346;2023-01-29T06:07:36;100488.53;;;-0.73;100.00
66021;BME280;52789;59.980;30.346;2023-01-29T06:10:04;100483.09;;;-0.70;100.00
66021;BME280;52789;59.980;30.346;2023-01-29T06:12:30;100495.88;;;-0.65;100.00
66021;BME280;52789;59.980;30.346;2023-01-29T06:14:55;100483.53;;;-0.63;100.00
66021;BME280;52789;59.980;30.346;2023-01-29T06:17:21;100487.09;;;-0.64;100.00
66021;BME280;52789;59.980;30.346;2023-01-29T06:19:47;100481.84;;;-0.64;100.00
66021;BME280;52789;59.980;30.346;2023-01-29T06:22:12;100481.47;;;-0.58;100.00
66021;BME280;52789;59.980;30.346;2023-01-29T06:24:38;100481.28;;;-0.55;100.00
66021;BME280;52789;59.980;30.346;2023-01-29T06:27:03;100469.16;;;-0.56;100.00
66021;BME280;52789;59.980;30.346;2023-01-29T06:29:29;100471.47;;;-0.51;100.00
66021;BME280;52789;59.980;30.346;2023-01-29T06:31:54;100460.50;;;-0.44;100.00
66021;BME280;52789;59.980;30.346;2023-01-29T06:34:19;100483.44;;;-0.35;100.00
66021;BME280;52789;59.980;30.346;2023-01-29T06:36:45;100473.50;;;-0.29;100.00
66021;BME280;52789;59.980;30.346;2023-01-29T06:39:11;100474.16;;;-0.26;100.00
66021;BME280;52789;59.980;30.346;2023-01-29T06:41:36;100472.38;;;-0.25;100.00
66021;BME280;52789;59.980;30.346;2023-01-29T06:44:02;100463.25;;;-0.33;100.00
66021;BME280;52789;59.980;30.346;2023-01-29T06:46:27;100470.72;;;-0.26;100.00
66021;BME280;52789;59.980;30.346;2023-01-29T06:48:53;100475.00;;;-0.25;100.00
66021;BME280;52789;59.980;30.346;2023-01-29T06:51:18;100470.50;;;-0.23;100.00
66021;BME280;52789;59.980;30.346;2023-01-29T06:53:46;100472.91;;;-0.20;100.00
66021;BME280;52789;59.980;30.346;2023-01-29T06:56:12;100468.53;;;-0.20;100.00
66021;BME280;52789;59.980;30.346;2023-01-29T06:58:37;100462.25;;;-0.17;100.00
66021;BME280;52789;59.980;30.346;2023-01-29T07:01:09;100451.66;;;-0.16;100.00
66021;BME280;52789;59.980;30.346;2023-01-29T07:03:35;100467.59;;;-0.06;100.00
66021;BME280;52789;59.980;30.346;2023-01-29T07:06:00;100462.47;;;-0.08;100.00
66021;BME280;52789;59.980;30.346;2023-01-29T07:08:26;100460.47;;;-0.04;100.00
66021;BME280;52789;59.980;30.346;2023-01-29T07:10:57;100471.41;;;0.03;100.00
66021;BME280;52789;59.980;30.346;2023-01-29T07:13:24;100459.34;;;0.00;100.00
66021;BME280;52789;59.980;30.346;2023-01-29T07:15:49;100463.44;;;0.04;100.00
66021;BME280;52789;59.980;30.346;2023-01-29T07:18:15;100461.66;;;0.05;100.00
66021;BME280;52789;59.980;30.346;2023-01-29T07:20:42;100467.22;;;0.13;100.00
66021;BME280;52789;59.980;30.346;2023-01-29T07:23:10;100456.13;;;0.09;100.00
66021;BME280;52789;59.980;30.346;2023-01-29T07:25:36;100460.31;;;0.12;100.00
66021;BME280;52789;59.980;30.346;2023-01-29T07:28:02;100465.66;;;0.10;100.00
66021;BME280;52789;59.980;30.346;2023-01-29T07:30:28;100472.13;;;0.17;100.00
66021;BME280;52789;59.980;30.346;2023-01-29T07:32:54;100459.34;;;0.13;100.00
66021;BME280;52789;59.980;30.346;2023-01-29T07:35:20;100456.53;;;0.16;100.00
66021;BME280;52789;59.980;30.346;2023-01-29T07:37:49;100469.31;;;0.20;100.00
66021;BME280;52789;59.980;30.346;2023-01-29T07:40:17;100451.28;;;0.16;100.00
66021;BME280;52789;59.980;30.346;2023-01-29T07:42:42;100455.28;;;0.21;100.00
66021;BME280;52789;59.980;30.346;2023-01-29T07:45:09;100456.94;;;0.22;100.00
66021;BME280;52789;59.980;30.346;2023-01-29T07:47:35;100451.81;;;0.21;100.00
66021;BME280;52789;59.980;30.346;2023-01-29T07:50:01;100459.56;;;0.22;100.00
66021;BME280;52789;59.980;30.346;2023-01-29T07:52:30;100466.16;;;0.28;100.00
66021;BME280;52789;59.980;30.346;2023-01-29T07:54:57;100457.47;;;0.27;100.00
66021;BME280;52789;59.980;30.346;2023-01-29T07:57:23;100463.75;;;0.25;100.00
66021;BME280;52789;59.980;30.346;2023-01-29T07:59:48;100450.97;;;0.20;100.00
66021;BME280;52789;59.980;30.346;2023-01-29T08:02:14;100431.59;;;0.10;100.00
66021;BME280;52789;59.980;30.346;2023-01-29T08:04:39;100448.03;;;0.25;100.00
66021;BME280;52789;59.980;30.346;2023-01-29T08:07:05;100447.31;;;0.23;100.00
66021;BME280;52789;59.980;30.346;2023-01-29T08:09:30;100441.03;;;0.25;100.00
66021;BME280;52789;59.980;30.346;2023-01-29T08:11:56;100454.66;;;0.43;100.00
66021;BME280;52789;59.980;30.346;2023-01-29T08:14:22;100447.63;;;0.44;100.00
66021;BME280;52789;59.980;30.346;2023-01-29T08:16:48;100455.78;;;0.52;100.00
66021;BME280;52789;59.980;30.346;2023-01-29T08:19:14;100443.63;;;0.51;100.00
66021;BME280;52789;59.980;30.346;2023-01-29T08:21:40;100450.56;;;0.52;100.00
66021;BME280;52789;59.980;30.346;2023-01-29T08:24:05;100449.59;;;0.53;100.00
66021;BME280;52789;59.980;30.346;2023-01-29T08:26:40;100437.66;;;0.49;100.00
66021;BME280;52789;59.980;30.346;2023-01-29T08:29:06;100439.34;;;0.50;100.00
66021;BME280;52789;59.980;30.346;2023-01-29T08:31:31;100454.63;;;0.56;100.00
66021;BME280;52789;59.980;30.346;2023-01-29T08:33:57;100437.97;;;0.57;100.00
66021;BME280;52789;59.980;30.346;2023-01-29T08:36:24;100451.47;;;0.76;100.00
66021;BME280;52789;59.980;30.346;2023-01-29T08:38:49;100453.16;;;0.77;100.00
66021;BME280;52789;59.980;30.346;2023-01-29T08:41:15;100453.97;;;0.78;100.00
66021;BME280;52789;59.980;30.346;2023-01-29T08:43:40;100460.50;;;0.72;100.00
66021;BME280;52789;59.980;30.346;2023-01-29T08:46:06;100456.31;;;0.70;100.00
66021;BME280;52789;59.980;30.346;2023-01-29T08:48:32;100464.06;;;0.71;100.00
66021;BME280;52789;59.980;30.346;2023-01-29T08:50:59;100418.09;;;0.42;100.00
66021;BME280;52789;59.980;30.346;2023-01-29T08:53:26;100465.97;;;0.69;100.00
66021;BME280;52789;59.980;30.346;2023-01-29T08:56:01;100460.00;;;0.67;100.00
66021;BME280;52789;59.980;30.346;2023-01-29T08:58:27;100463.75;;;0.76;100.00
66021;BME280;52789;59.980;30.346;2023-01-29T09:00:52;100455.66;;;0.79;100.00
66021;BME280;52789;59.980;30.346;2023-01-29T09:03:21;100445.50;;;0.74;100.00
66021;BME280;52789;59.980;30.346;2023-01-29T09:05:50;100459.22;;;0.78;100.00
66021;BME280;52789;59.980;30.346;2023-01-29T09:08:15;100446.44;;;0.73;100.00
66021;BME280;52789;59.980;30.346;2023-01-29T09:14:21;100410.31;;;0.53;100.00
66021;BME280;52789;59.980;30.346;2023-01-29T09:16:47;100456.50;;;0.79;100.00
66021;BME280;52789;59.980;30.346;2023-01-29T09:19:12;100408.53;;;0.53;100.00
66021;BME280;52789;59.980;30.346;2023-01-29T09:21:38;100442.09;;;0.85;100.00
66021;BME280;52789;59.980;30.346;2023-01-29T09:24:19;100440.13;;;0.88;100.00
66021;BME280;52789;59.980;30.346;2023-01-29T09:34:00;100420.28;;;0.97;100.00
66021;BME280;52789;59.980;30.346;2023-01-29T09:36:32;100385.59;;;0.81;100.00
66021;BME280;52789;59.980;30.346;2023-01-29T09:38:58;100408.84;;;0.98;100.00
66021;BME280;52789;59.980;30.346;2023-01-29T09:41:50;100391.16;;;0.89;100.00
66021;BME280;52789;59.980;30.346;2023-01-29T09:47:26;100418.72;;;0.95;100.00
66021;BME280;52789;59.980;30.346;2023-01-29T09:53:52;100390.16;;;1.03;99.78
66021;BME280;52789;59.980;30.346;2023-01-29T09:56:27;100398.38;;;1.22;98.84
66021;BME280;52789;59.980;30.346;2023-01-29T09:59:33;100392.72;;;1.39;98.10
66021;BME280;52789;59.980;30.346;2023-01-29T10:05:06;100359.88;;;1.22;96.96
66021;BME280;52789;59.980;30.346;2023-01-29T10:11:14;100403.50;;;1.23;97.48
66021;BME280;52789;59.980;30.346;2023-01-29T10:25:51;100372.97;;;0.99;97.32
66021;BME280;52789;59.980;30.346;2023-01-29T10:28:34;100395.03;;;1.20;97.32
66021;BME280;52789;59.980;30.346;2023-01-29T10:33:59;100402.66;;;1.23;96.95
66021;BME280;52789;59.980;30.346;2023-01-29T10:36:50;100390.50;;;1.22;97.05
66021;BME280;52789;59.980;30.346;2023-01-29T10:39:41;100407.97;;;1.34;96.55
66021;BME280;52789;59.980;30.346;2023-01-29T10:42:30;100409.91;;;1.43;95.95
66021;BME280;52789;59.980;30.346;2023-01-29T10:45:23;100402.00;;;1.32;94.95
66021;BME280;52789;59.980;30.346;2023-01-29T11:10:16;100375.97;;;1.29;95.26
66021;BME280;52789;59.980;30.346;2023-01-29T11:12:55;100375.59;;;1.22;95.37
66021;BME280;52789;59.980;30.346;2023-01-29T11:15:27;100332.44;;;0.91;96.17
66021;BME280;52789;59.980;30.346;2023-01-29T11:18:09;100304.94;;;0.84;95.89
66021;BME280;52789;59.980;30.346;2023-01-29T11:21:12;100364.28;;;1.22;95.53
66021;BME280;52789;59.980;30.346;2023-01-29T11:23:44;100350.44;;;1.20;95.28
66021;BME280;52789;59.980;30.346;2023-01-29T11:26:18;100304.84;;;0.86;95.24
66021;BME280;52789;59.980;30.346;2023-01-29T11:28:58;100307.88;;;0.92;95.87
66021;BME280;52789;59.980;30.346;2023-01-29T11:31:50;100336.59;;;1.18;95.58
66021;BME280;52789;59.980;30.346;2023-01-29T11:35:44;100333.25;;;1.16;95.50
66021;BME280;52789;59.980;30.346;2023-01-29T11:38:32;100312.22;;;1.05;95.51
66021;BME280;52789;59.980;30.346;2023-01-29T11:41:40;100320.63;;;1.21;95.78
66021;BME280;52789;59.980;30.346;2023-01-29T11:46:51;100320.31;;;1.02;95.15
66021;BME280;52789;59.980;30.346;2023-01-29T11:49:26;100322.19;;;1.00;95.32
66021;BME280;52789;59.980;30.346;2023-01-29T11:51:55;100316.91;;;0.88;95.59
66021;BME280;52789;59.980;30.346;2023-01-29T11:54:24;100318.59;;;0.89;95.73
66021;BME280;52789;59.980;30.346;2023-01-29T12:00:03;100318.28;;;0.81;96.13
66021;BME280;52789;59.980;30.346;2023-01-29T12:06:36;100317.22;;;0.60;96.88
66021;BME280;52789;59.980;30.346;2023-01-29T12:09:15;100274.88;;;0.29;96.94
66021;BME280;52789;59.980;30.346;2023-01-29T12:11:49;100313.56;;;0.50;97.54
66021;BME280;52789;59.980;30.346;2023-01-29T12:14:32;100304.38;;;0.44;97.84
66021;BME280;52789;59.980;30.346;2023-01-29T12:17:20;100316.69;;;0.55;97.85
66021;BME280;52789;59.980;30.346;2023-01-29T12:19:57;100288.88;;;0.41;97.27
66021;BME280;52789;59.980;30.346;2023-01-29T12:22:55;100306.66;;;0.49;97.87
66021;BME280;52789;59.980;30.346;2023-01-29T12:28:30;100319.13;;;0.58;97.17
66021;BME280;52789;59.980;30.346;2023-01-29T12:31:14;100320.81;;;0.59;97.35
66021;BME280;52789;59.980;30.346;2023-01-29T12:41:00;100294.28;;;0.51;96.60
66021;BME280;52789;59.980;30.346;2023-01-29T12:44:30;100302.25;;;0.62;96.73
66021;BME280;52789;59.980;30.346;2023-01-29T12:46:59;100306.22;;;0.55;97.33
66021;BME280;52789;59.980;30.346;2023-01-29T12:49:29;100297.84;;;0.50;97.59
66021;BME280;52789;59.980;30.346;2023-01-29T12:52:26;100302.00;;;0.65;97.55
66021;BME280;52789;59.980;30.346;2023-01-29T12:55:00;100295.00;;;0.66;97.12
66021;BME280;52789;59.980;30.346;2023-01-29T13:00:33;100301.44;;;0.49;97.84
66021;BME280;52789;59.980;30.346;2023-01-29T13:06:07;100275.16;;;0.38;98.73
66021;BME280;52789;59.980;30.346;2023-01-29T13:11:07;100263.88;;;0.24;98.96
66021;BME280;52789;59.980;30.346;2023-01-29T13:16:55;100271.44;;;0.29;99.53
66021;BME280;52789;59.980;30.346;2023-01-29T13:19:35;100266.28;;;0.27;99.74
66021;BME280;52789;59.980;30.346;2023-01-29T13:22:17;100255.19;;;0.24;99.87
66021;BME280;52789;59.980;30.346;2023-01-29T13:24:44;100253.50;;;0.36;99.82
66021;BME280;52789;59.980;30.346;2023-01-29T13:27:27;100255.59;;;0.30;100.00
66021;BME280;52789;59.980;30.346;2023-01-29T13:29:59;100252.44;;;0.38;100.00
66021;BME280;52789;59.980;30.346;2023-01-29T13:32:27;100252.31;;;0.40;99.79
66021;BME280;52789;59.980;30.346;2023-01-29T13:35:12;100246.34;;;0.38;99.83
66021;BME280;52789;59.980;30.346;2023-01-29T13:37:47;100248.97;;;0.38;100.00
66021;BME280;52789;59.980;30.346;2023-01-29T13:40:28;100244.06;;;0.33;99.74
66021;BME280;52789;59.980;30.346;2023-01-29T13:42:55;100248.59;;;0.31;100.00
66021;BME280;52789;59.980;30.346;2023-01-29T13:45:33;100240.09;;;0.27;100.00
66021;BME280;52789;59.980;30.346;2023-01-29T13:48:18;100220.03;;;0.15;100.00
66021;BME280;52789;59.980;30.346;2023-01-29T13:50:46;100211.03;;;0.07;100.00
66021;BME280;52789;59.980;30.346;2023-01-29T13:53:39;100204.47;;;0.01;100.00
66021;BME280;52789;59.980;30.346;2023-01-29T13:58:56;100179.09;;;-0.22;100.00
66021;BME280;52789;59.980;30.346;2023-01-29T14:06:54;100203.31;;;-0.08;100.00
66021;BME280;52789;59.980;30.346;2023-01-29T14:12:01;100188.88;;;-0.13;100.00
66021;BME280;52789;59.980;30.346;2023-01-29T14:17:21;100206.34;;;-0.01;100.00
66021;BME280;52789;59.980;30.346;2023-01-29T14:19:53;100198.28;;;0.02;100.00
66021;BME280;52789;59.980;30.346;2023-01-29T14:22:25;100186.88;;;0.03;100.00
66021;BME280;52789;59.980;30.346;2023-01-29T14:25:01;100187.59;;;0.05;100.00
66021;BME280;52789;59.980;30.346;2023-01-29T14:27:31;100148.41;;;-0.20;100.00
66021;BME280;52789;59.980;30.346;2023-01-29T14:30:06;100182.34;;;0.05;100.00
66021;BME280;52789;59.980;30.346;2023-01-29T14:32:57;100159.16;;;-0.12;100.00
66021;BME280;52789;59.980;30.346;2023-01-29T14:38:52;100167.50;;;-0.07;100.00
66021;BME280;52789;59.980;30.346;2023-01-29T14:41:32;100173.06;;;0.01;100.00
66021;BME280;52789;59.980;30.346;2023-01-29T14:53:19;100168.00;;;-0.02;100.00
66021;BME280;52789;59.980;30.346;2023-01-29T15:03:47;100154.31;;;-0.06;100.00
66021;BME280;52789;59.980;30.346;2023-01-29T15:09:19;100125.56;;;-0.18;100.00
66021;BME280;52789;59.980;30.346;2023-01-29T15:15:20;100144.03;;;0.04;100.00
66021;BME280;52789;59.980;30.346;2023-01-29T15:21:01;100159.53;;;0.07;100.00
66021;BME280;52789;59.980;30.346;2023-01-29T15:23:32;100153.44;;;0.07;100.00
66021;BME280;52789;59.980;30.346;2023-01-29T15:26:02;100147.72;;;0.02;100.00
66021;BME280;52789;59.980;30.346;2023-01-29T15:28:29;100140.47;;;0.05;100.00
66021;BME280;52789;59.980;30.346;2023-01-29T15:31:00;100135.00;;;0.08;100.00
66021;BME280;52789;59.980;30.346;2023-01-29T15:33:28;100136.56;;;0.11;100.00
66021;BME280;52789;59.980;30.346;2023-01-29T15:39:23;100114.44;;;-0.09;100.00
66021;BME280;52789;59.980;30.346;2023-01-29T15:41:50;100117.25;;;0.01;100.00
66021;BME280;52789;59.980;30.346;2023-01-29T15:44:28;100119.75;;;0.02;100.00
66021;BME280;52789;59.980;30.346;2023-01-29T15:46:55;100112.63;;;0.04;100.00
66021;BME280;52789;59.980;30.346;2023-01-29T15:49:29;100118.69;;;0.05;100.00
66021;BME280;52789;59.980;30.346;2023-01-29T15:51:57;100097.91;;;-0.10;100.00
66021;BME280;52789;59.980;30.346;2023-01-29T15:54:24;100114.91;;;0.09;100.00
66021;BME280;52789;59.980;30.346;2023-01-29T15:56:54;100083.63;;;-0.06;100.00
66021;BME280;52789;59.980;30.346;2023-01-29T15:59:26;100120.41;;;0.17;100.00
66021;BME280;52789;59.980;30.346;2023-01-29T16:01:52;100110.88;;;0.16;100.00
66021;BME280;52789;59.980;30.346;2023-01-29T16:04:36;100113.16;;;0.20;100.00
66021;BME280;52789;59.980;30.346;2023-01-29T16:07:01;100101.34;;;0.15;100.00
66021;BME280;52789;59.980;30.346;2023-01-29T16:09:28;100101.13;;;0.18;100.00
66021;BME280;52789;59.980;30.346;2023-01-29T16:11:57;100095.09;;;0.28;100.00
66021;BME280;52789;59.980;30.346;2023-01-29T16:14:24;100091.31;;;0.33;100.00
66021;BME280;52789;59.980;30.346;2023-01-29T16:16:51;100093.47;;;0.39;100.00
66021;BME280;52789;59.980;30.346;2023-01-29T16:19:25;100062.38;;;0.34;100.00
66021;BME280;52789;59.980;30.346;2023-01-29T16:21:59;100085.16;;;0.45;100.00